createdAt,value
2022-10-01T00:01:26.502Z,1000.4
2022-10-01T00:02:26.422Z,1000.3
2022-10-01T00:03:26.352Z,1000.3
2022-10-01T00:04:26.349Z,1000.3
2022-10-01T00:05:26.348Z,1000.4
2022-10-01T00:06:26.340Z,1000.2
2022-10-01T00:07:26.340Z,1000.2
2022-10-01T00:08:26.349Z,1000.3
2022-10-01T00:09:26.397Z,1000.3
2022-10-01T00:10:26.345Z,1000.3
2022-10-01T00:11:26.357Z,1000.2
2022-10-01T00:12:26.354Z,1000.3
2022-10-01T00:13:26.339Z,1000.2
2022-10-01T00:14:26.347Z,1000.2
2022-10-01T00:15:26.348Z,1000.3
2022-10-01T00:16:26.429Z,1000.3
2022-10-01T00:17:26.346Z,1000.3
2022-10-01T00:18:26.350Z,1000.3
2022-10-01T00:19:26.347Z,1000.3
2022-10-01T00:20:26.350Z,1000.3
2022-10-01T00:22:28.590Z,1000.3
2022-10-01T00:23:26.351Z,1000.2
2022-10-01T00:24:26.442Z,1000.2
2022-10-01T00:25:34.675Z,1000.3
2022-10-01T00:26:34.680Z,1000.3
2022-10-01T00:27:34.679Z,1000.1
2022-10-01T00:28:26.430Z,1000.2
2022-10-01T00:29:26.356Z,1000.2
2022-10-01T00:30:26.334Z,1000.1
2022-10-01T00:31:26.488Z,1000.1
2022-10-01T00:32:26.342Z,1000.1
2022-10-01T00:34:26.345Z,1000.1
2022-10-01T00:35:26.360Z,1000
2022-10-01T00:36:26.342Z,1000
2022-10-01T00:37:26.347Z,1000
2022-10-01T00:38:26.352Z,1000
2022-10-01T00:39:26.352Z,999.9
2022-10-01T00:40:26.374Z,999.9
2022-10-01T00:41:26.396Z,999.9
2022-10-01T00:43:26.347Z,999.9
2022-10-01T00:44:26.350Z,999.9
2022-10-01T00:45:26.521Z,999.8
2022-10-01T00:46:26.345Z,999.8
2022-10-01T00:47:26.345Z,999.8
2022-10-01T00:48:26.396Z,999.9
2022-10-01T00:49:26.350Z,999.7
2022-10-01T00:50:26.357Z,999.6
2022-10-01T00:51:26.350Z,999.6
2022-10-01T00:52:26.348Z,999.5
2022-10-01T00:53:26.349Z,999.5
2022-10-01T00:54:26.364Z,999.4
2022-10-01T00:56:26.350Z,999.4
2022-10-01T00:57:26.351Z,999.2
2022-10-01T00:58:26.355Z,999.1
2022-10-01T00:59:26.336Z,999
2022-10-01T01:00:26.356Z,999
2022-10-01T01:01:26.406Z,999.1
2022-10-01T01:02:26.389Z,999.1
2022-10-01T01:04:26.355Z,999.4
2022-10-01T01:05:26.423Z,999.1
2022-10-01T01:06:26.345Z,999.3
2022-10-01T01:07:26.354Z,999.1
2022-10-01T01:08:26.373Z,999.2
2022-10-01T01:09:26.347Z,999.3
2022-10-01T01:10:26.334Z,999.4
2022-10-01T01:11:26.372Z,999.3
2022-10-01T01:12:26.366Z,999.3
2022-10-01T01:13:26.353Z,999.3
2022-10-01T01:14:26.353Z,999.4
2022-10-01T01:15:34.648Z,999.2
2022-10-01T01:16:26.359Z,999.2
2022-10-01T01:17:26.390Z,999.1
2022-10-01T01:18:26.356Z,999.2
2022-10-01T01:19:26.354Z,999.3
2022-10-01T01:20:26.353Z,999.2
2022-10-01T01:21:26.348Z,999.1
2022-10-01T01:22:26.418Z,999.2
2022-10-01T01:23:26.383Z,999.2
2022-10-01T01:24:26.356Z,999
2022-10-01T01:25:26.360Z,998.9
2022-10-01T01:26:26.356Z,998.9
2022-10-01T01:27:26.354Z,998.9
2022-10-01T01:28:26.430Z,998.9
2022-10-01T01:29:26.356Z,999
2022-10-01T01:30:26.355Z,998.9
2022-10-01T01:31:26.381Z,999
2022-10-01T01:32:26.352Z,998.9
2022-10-01T01:33:26.384Z,998.8
2022-10-01T01:34:26.468Z,998.8
2022-10-01T01:36:26.357Z,998.7
2022-10-01T01:37:26.355Z,998.7
2022-10-01T01:38:26.379Z,998.7
2022-10-01T01:39:26.347Z,998.7
2022-10-01T01:40:26.356Z,998.7
2022-10-01T01:42:26.377Z,998.7
2022-10-01T01:43:26.368Z,998.7
2022-10-01T01:44:26.354Z,998.6
2022-10-01T01:45:26.360Z,998.6
2022-10-01T01:46:26.359Z,998.6
2022-10-01T01:47:26.357Z,998.7
2022-10-01T01:48:26.355Z,998.6
2022-10-01T01:49:26.354Z,998.6
2022-10-01T01:50:26.354Z,998.6
2022-10-01T01:51:26.413Z,998.5
2022-10-01T01:52:26.352Z,998.6
2022-10-01T01:53:26.380Z,998.5
2022-10-01T01:54:26.772Z,998.5
2022-10-01T01:55:26.358Z,998.5
2022-10-01T01:57:26.355Z,998.4
2022-10-01T01:58:26.419Z,998.4
2022-10-01T01:59:26.480Z,998.4
2022-10-01T02:00:26.356Z,998.4
2022-10-01T02:01:26.386Z,998.4
2022-10-01T02:02:34.750Z,998.4
2022-10-01T02:03:34.682Z,998.3
2022-10-01T02:05:26.359Z,998.3
2022-10-01T02:06:26.357Z,998.3
2022-10-01T02:07:26.355Z,998.2
2022-10-01T02:08:26.352Z,998.2
2022-10-01T02:09:26.351Z,998.1
2022-10-01T02:10:26.421Z,998.1
2022-10-01T02:11:26.358Z,998.2
2022-10-01T02:12:26.357Z,998.2
2022-10-01T02:13:26.374Z,998.2
2022-10-01T02:14:26.394Z,998.2
2022-10-01T02:15:26.359Z,998.2
2022-10-01T02:16:26.474Z,998.3
2022-10-01T02:18:26.355Z,998.3
2022-10-01T02:19:26.353Z,998.3
2022-10-01T02:20:26.358Z,998.3
2022-10-01T02:21:26.363Z,998.3
2022-10-01T02:22:26.354Z,998.3
2022-10-01T02:24:26.360Z,998.4
2022-10-01T02:25:26.370Z,998.4
2022-10-01T02:26:26.363Z,998.3
2022-10-01T02:27:26.358Z,998.5
2022-10-01T02:29:26.361Z,998.4
2022-10-01T02:30:26.358Z,998.4
2022-10-01T02:31:26.401Z,998.2
2022-10-01T02:32:26.397Z,998.4
2022-10-01T02:33:26.353Z,998.3
2022-10-01T02:34:26.370Z,998.2
2022-10-01T02:35:26.352Z,998.1
2022-10-01T02:37:26.357Z,998.3
2022-10-01T02:38:26.359Z,998.2
2022-10-01T02:39:26.373Z,998.2
2022-10-01T02:40:26.367Z,998.2
2022-10-01T02:41:26.359Z,998.2
2022-10-01T02:42:26.414Z,998.1
2022-10-01T02:43:26.362Z,998.1
2022-10-01T02:44:26.460Z,998.1
2022-10-01T02:45:26.361Z,998
2022-10-01T02:46:26.354Z,998
2022-10-01T02:47:26.362Z,998
2022-10-01T02:48:26.352Z,997.9
2022-10-01T02:50:26.352Z,997.9
2022-10-01T02:51:26.366Z,997.9
2022-10-01T02:52:26.441Z,998
2022-10-01T02:53:34.702Z,997.9
2022-10-01T02:54:34.680Z,997.8
2022-10-01T02:55:34.684Z,997.8
2022-10-01T02:56:26.374Z,997.9
2022-10-01T02:57:26.367Z,997.9
2022-10-01T02:58:26.362Z,997.7
2022-10-01T02:59:26.407Z,997.7
2022-10-01T03:00:26.357Z,997.6
2022-10-01T03:02:26.436Z,997.6
2022-10-01T03:03:26.356Z,997.5
2022-10-01T03:04:26.354Z,997.3
2022-10-01T03:05:26.381Z,997.2
2022-10-01T03:06:26.358Z,997.3
2022-10-01T03:07:26.355Z,997.2
2022-10-01T03:08:26.355Z,997.3
2022-10-01T03:09:26.364Z,997.4
2022-10-01T03:11:26.361Z,997.3
2022-10-01T03:12:26.351Z,997.3
2022-10-01T03:13:26.363Z,997.3
2022-10-01T03:14:27.510Z,997.3
2022-10-01T03:15:26.380Z,997.5
2022-10-01T03:16:26.402Z,997.4
2022-10-01T03:17:26.358Z,997.4
2022-10-01T03:18:26.357Z,997.3
2022-10-01T03:19:26.359Z,997.5
2022-10-01T03:20:26.362Z,997.3
2022-10-01T03:21:26.360Z,997.3
2022-10-01T03:23:26.360Z,997.2
2022-10-01T03:24:26.357Z,997.4
2022-10-01T03:25:26.379Z,997.2
2022-10-01T03:26:26.426Z,997.4
2022-10-01T03:27:26.361Z,997.4
2022-10-01T03:28:26.426Z,997.1
2022-10-01T03:29:26.366Z,997.1
2022-10-01T03:30:26.361Z,997
2022-10-01T03:31:26.401Z,997.1
2022-10-01T03:32:26.365Z,997.2
2022-10-01T03:33:26.351Z,997.2
2022-10-01T03:34:26.360Z,997.1
2022-10-01T03:35:26.358Z,997.1
2022-10-01T03:36:26.363Z,997
2022-10-01T03:37:26.367Z,996.9
2022-10-01T03:38:26.356Z,996.9
2022-10-01T03:39:26.369Z,996.7
2022-10-01T03:40:26.370Z,996.7
2022-10-01T03:41:26.363Z,996.7
2022-10-01T03:43:34.686Z,996.5
2022-10-01T03:44:34.693Z,996.5
2022-10-01T03:45:34.807Z,996.5
2022-10-01T03:46:34.715Z,996.2
2022-10-01T03:47:34.690Z,996.4
2022-10-01T03:48:34.694Z,996.5
2022-10-01T03:49:34.692Z,996.3
2022-10-01T03:50:34.750Z,996.3
2022-10-01T03:51:34.897Z,996.5
2022-10-01T03:52:34.687Z,996.4
2022-10-01T03:53:34.687Z,996.4
2022-10-01T03:54:34.690Z,996.4
2022-10-01T03:55:34.689Z,996.6
2022-10-01T03:56:34.687Z,996.6
2022-10-01T03:57:34.693Z,996.6
2022-10-01T03:58:34.909Z,996.5
2022-10-01T04:03:26.362Z,996.4
2022-10-01T04:04:26.366Z,996.2
2022-10-01T04:05:26.357Z,996.6
2022-10-01T04:06:26.368Z,996.6
2022-10-01T04:07:26.362Z,996.5
2022-10-01T04:08:26.367Z,996.5
2022-10-01T04:09:26.369Z,996.5
2022-10-01T04:10:26.365Z,996.4
2022-10-01T04:11:26.359Z,996.5
2022-10-01T04:12:26.359Z,996.5
2022-10-01T04:13:26.362Z,996.5
2022-10-01T04:14:26.425Z,996.7
2022-10-01T04:16:26.410Z,996.6
2022-10-01T04:17:26.356Z,996.8
2022-10-01T04:18:26.361Z,996.7
2022-10-01T04:19:26.372Z,996.6
2022-10-01T04:20:26.365Z,996.5
2022-10-01T04:21:26.380Z,996.5
2022-10-01T04:22:26.365Z,996.5
2022-10-01T04:23:26.363Z,996.5
2022-10-01T04:24:26.359Z,996.5
2022-10-01T04:25:26.369Z,996.5
2022-10-01T04:26:26.361Z,996.6
2022-10-01T04:27:26.357Z,996.7
2022-10-01T04:28:26.421Z,996.6
2022-10-01T04:29:26.361Z,996.5
2022-10-01T04:30:26.364Z,996.4
2022-10-01T04:31:26.602Z,996.5
2022-10-01T04:32:26.386Z,996.5
2022-10-01T04:33:26.371Z,996.5
2022-10-01T04:34:26.359Z,996.5
2022-10-01T04:35:26.363Z,996.6
2022-10-01T04:36:26.358Z,996.5
2022-10-01T04:37:26.365Z,996.4
2022-10-01T04:38:26.366Z,996.3
2022-10-01T04:39:26.366Z,996.4
2022-10-01T04:40:26.363Z,996.3
2022-10-01T04:41:26.365Z,996.4
2022-10-01T04:42:26.364Z,996.4
2022-10-01T04:43:26.359Z,996.3
2022-10-01T04:44:26.360Z,996.4
2022-10-01T04:45:26.361Z,996.3
2022-10-01T04:46:26.470Z,996.4
2022-10-01T04:47:26.358Z,996.5
2022-10-01T04:48:26.356Z,996.4
2022-10-01T04:49:34.689Z,996.4
2022-10-01T04:50:34.690Z,996.5
2022-10-01T04:51:35.079Z,996.4
2022-10-01T04:52:34.698Z,996.4
2022-10-01T04:53:34.697Z,996.4
2022-10-01T04:54:34.679Z,996.4
2022-10-01T04:55:34.685Z,996.4
2022-10-01T04:56:34.700Z,996.4
2022-10-01T04:57:34.686Z,996.4
2022-10-01T04:58:34.689Z,996.4
2022-10-01T04:59:34.689Z,996.4
2022-10-01T05:00:34.776Z,996.4
2022-10-01T05:01:35.185Z,996.5
2022-10-01T05:02:34.813Z,996.5
2022-10-01T05:03:34.711Z,996.5
2022-10-01T05:04:34.690Z,996.4
2022-10-01T05:09:30.326Z,996.3
2022-10-01T05:10:26.363Z,996.4
2022-10-01T05:11:26.363Z,996.4
2022-10-01T05:12:26.407Z,996.5
2022-10-01T05:13:26.366Z,996.5
2022-10-01T05:14:26.363Z,996.5
2022-10-01T05:15:26.368Z,996.4
2022-10-01T05:17:26.363Z,996.4
2022-10-01T05:18:26.370Z,996.4
2022-10-01T05:19:28.151Z,996.5
2022-10-01T05:20:26.363Z,996.6
2022-10-01T05:21:26.362Z,996.5
2022-10-01T05:22:26.360Z,996.5
2022-10-01T05:23:26.361Z,996.6
2022-10-01T05:24:26.378Z,996.5
2022-10-01T05:25:26.381Z,996.7
2022-10-01T05:26:26.357Z,996.5
2022-10-01T05:27:26.379Z,996.5
2022-10-01T05:28:26.445Z,996.5
2022-10-01T05:29:26.426Z,996.6
2022-10-01T05:30:26.367Z,996.6
2022-10-01T05:31:26.484Z,996.7
2022-10-01T05:32:26.367Z,996.8
2022-10-01T05:33:26.367Z,996.7
2022-10-01T05:34:26.393Z,996.7
2022-10-01T05:37:26.368Z,996.7
2022-10-01T05:38:26.369Z,996.8
2022-10-01T05:39:26.375Z,996.8
2022-10-01T05:40:26.364Z,996.8
2022-10-01T05:41:26.428Z,996.8
2022-10-01T05:42:26.368Z,996.7
2022-10-01T05:43:26.359Z,996.9
2022-10-01T05:44:26.359Z,996.8
2022-10-01T05:45:26.403Z,996.9
2022-10-01T05:46:26.436Z,996.9
2022-10-01T05:47:26.365Z,996.8
2022-10-01T05:48:26.372Z,996.9
2022-10-01T05:49:26.364Z,996.9
2022-10-01T05:50:26.366Z,996.8
2022-10-01T05:51:26.371Z,996.9
2022-10-01T05:52:26.368Z,996.9
2022-10-01T05:53:26.370Z,996.8
2022-10-01T05:54:26.381Z,996.9
2022-10-01T05:55:26.455Z,996.9
2022-10-01T05:56:34.711Z,997
2022-10-01T05:57:34.689Z,996.9
2022-10-01T05:58:34.702Z,996.9
2022-10-01T05:59:34.695Z,996.9
2022-10-01T06:00:26.373Z,996.9
2022-10-01T06:01:26.367Z,997
2022-10-01T06:02:26.476Z,997
2022-10-01T06:03:26.364Z,996.9
2022-10-01T06:04:26.375Z,997
2022-10-01T06:05:26.388Z,997
2022-10-01T06:06:26.367Z,997
2022-10-01T06:07:26.388Z,997
2022-10-01T06:08:26.378Z,997
2022-10-01T06:10:26.361Z,997
2022-10-01T06:11:26.359Z,997
2022-10-01T06:12:26.366Z,997
2022-10-01T06:13:26.370Z,997
2022-10-01T06:14:26.363Z,997
2022-10-01T06:15:26.369Z,997
2022-10-01T06:16:26.436Z,997
2022-10-01T06:17:26.367Z,997
2022-10-01T06:18:26.366Z,996.9
2022-10-01T06:19:26.371Z,997
2022-10-01T06:20:26.416Z,996.9
2022-10-01T06:21:26.374Z,997
2022-10-01T06:22:26.372Z,997
2022-10-01T06:23:26.374Z,997
2022-10-01T06:24:26.369Z,997
2022-10-01T06:25:26.368Z,997
2022-10-01T06:26:26.388Z,997
2022-10-01T06:27:26.361Z,997
2022-10-01T06:28:26.485Z,997
2022-10-01T06:29:26.382Z,997.1
2022-10-01T06:30:26.455Z,997.1
2022-10-01T06:31:26.433Z,997.1
2022-10-01T06:32:26.428Z,997.1
2022-10-01T06:33:26.361Z,997.1
2022-10-01T06:34:26.369Z,997.1
2022-10-01T06:36:26.402Z,997.1
2022-10-01T06:37:26.365Z,997.1
2022-10-01T06:38:26.361Z,997.2
2022-10-01T06:39:26.374Z,997.1
2022-10-01T06:40:26.400Z,997.2
2022-10-01T06:41:26.374Z,997.2
2022-10-01T06:42:26.362Z,997.3
2022-10-01T06:43:26.371Z,997.2
2022-10-01T06:44:26.366Z,997.1
2022-10-01T06:45:26.603Z,997.1
2022-10-01T06:46:26.436Z,997.1
2022-10-01T06:47:34.703Z,997.1
2022-10-01T06:48:34.712Z,997.1
2022-10-01T06:49:34.674Z,997.2
2022-10-01T06:50:26.433Z,997.2
2022-10-01T06:51:26.369Z,997.2
2022-10-01T06:52:26.359Z,997.2
2022-10-01T06:54:26.410Z,997.2
2022-10-01T06:55:26.374Z,997.2
2022-10-01T06:56:26.360Z,997.1
2022-10-01T06:57:26.372Z,997.2
2022-10-01T06:58:26.371Z,997.2
2022-10-01T06:59:26.368Z,997.2
2022-10-01T07:00:26.370Z,997.3
2022-10-01T07:01:26.462Z,997.2
2022-10-01T07:03:26.368Z,997.3
2022-10-01T07:04:26.370Z,997.3
2022-10-01T07:05:26.375Z,997.2
2022-10-01T07:06:26.373Z,997.2
2022-10-01T07:07:29.920Z,997.2
2022-10-01T07:09:26.369Z,997.3
2022-10-01T07:12:26.372Z,997.3
2022-10-01T07:13:26.369Z,997.3
2022-10-01T07:14:26.367Z,997.4
2022-10-01T07:15:26.371Z,997.3
2022-10-01T07:16:26.492Z,997.3
2022-10-01T07:18:26.376Z,997.3
2022-10-01T07:19:26.374Z,997.3
2022-10-01T07:20:26.370Z,997.3
2022-10-01T07:21:26.370Z,997.3
2022-10-01T07:22:26.381Z,997.4
2022-10-01T07:23:26.429Z,997.4
2022-10-01T07:24:26.371Z,997.4
2022-10-01T07:25:26.374Z,997.4
2022-10-01T07:26:27.305Z,997.4
2022-10-01T07:27:26.376Z,997.4
2022-10-01T07:28:26.450Z,997.5
2022-10-01T07:29:26.367Z,997.5
2022-10-01T07:30:26.377Z,997.5
2022-10-01T07:31:26.424Z,997.5
2022-10-01T07:32:26.368Z,997.5
2022-10-01T07:33:26.384Z,997.4
2022-10-01T07:34:26.373Z,997.5
2022-10-01T07:35:26.371Z,997.5
2022-10-01T07:36:26.388Z,997.5
2022-10-01T07:37:34.697Z,997.6
2022-10-01T07:38:34.727Z,997.6
2022-10-01T07:39:34.699Z,997.6
2022-10-01T07:40:34.746Z,997.6
2022-10-01T07:41:35.043Z,997.6
2022-10-01T07:42:34.698Z,997.6
2022-10-01T07:43:34.709Z,997.6
2022-10-01T07:44:34.712Z,997.6
2022-10-01T07:45:34.786Z,997.6
2022-10-01T07:46:34.971Z,997.6
2022-10-01T07:47:34.719Z,997.7
2022-10-01T07:48:34.706Z,997.7
2022-10-01T07:49:34.696Z,997.6
2022-10-01T07:50:34.719Z,997.7
2022-10-01T07:51:35.120Z,997.6
2022-10-01T07:52:34.703Z,997.6
2022-10-01T07:53:34.889Z,997.7
2022-10-01T07:56:28.869Z,997.6
2022-10-01T07:57:26.382Z,997.7
2022-10-01T07:58:26.373Z,997.7
2022-10-01T07:59:26.379Z,997.7
2022-10-01T08:00:26.382Z,997.7
2022-10-01T08:01:26.479Z,997.7
2022-10-01T08:02:26.470Z,997.7
2022-10-01T08:03:26.384Z,997.6
2022-10-01T08:04:26.386Z,997.7
2022-10-01T08:05:26.378Z,997.7
2022-10-01T08:06:26.374Z,997.7
2022-10-01T08:07:26.379Z,997.7
2022-10-01T08:08:26.378Z,997.7
2022-10-01T08:09:26.406Z,997.7
2022-10-01T08:11:26.378Z,997.7
2022-10-01T08:12:26.608Z,997.7
2022-10-01T08:13:26.376Z,997.7
2022-10-01T08:14:26.380Z,997.6
2022-10-01T08:15:26.376Z,997.7
2022-10-01T08:16:26.458Z,997.7
2022-10-01T08:17:29.445Z,997.7
2022-10-01T08:19:26.380Z,997.7
2022-10-01T08:21:26.376Z,997.7
2022-10-01T08:22:26.382Z,997.8
2022-10-01T08:23:26.388Z,997.8
2022-10-01T08:24:26.393Z,997.8
2022-10-01T08:25:26.380Z,997.8
2022-10-01T08:27:26.373Z,998
2022-10-01T08:28:26.450Z,997.9
2022-10-01T08:30:26.381Z,998
2022-10-01T08:31:26.516Z,998
2022-10-01T08:32:26.382Z,998
2022-10-01T08:33:26.378Z,998
2022-10-01T08:34:26.376Z,998
2022-10-01T08:35:26.376Z,998
2022-10-01T08:36:26.387Z,998
2022-10-01T08:37:26.378Z,998
2022-10-01T08:38:26.388Z,998
2022-10-01T08:39:26.375Z,998
2022-10-01T08:41:26.378Z,998.1
2022-10-01T08:42:26.374Z,998.1
2022-10-01T08:43:26.381Z,998.1
2022-10-01T08:44:26.396Z,998.1
2022-10-01T08:45:26.611Z,998.2
2022-10-01T08:46:26.387Z,998.2
2022-10-01T08:47:26.384Z,998.2
2022-10-01T08:49:34.639Z,998.2
2022-10-01T08:51:26.373Z,998.2
2022-10-01T08:52:26.386Z,998.2
2022-10-01T08:53:26.389Z,998.2
2022-10-01T08:54:26.388Z,998.2
2022-10-01T08:55:26.375Z,998.2
2022-10-01T08:56:26.382Z,998.2
2022-10-01T08:58:26.378Z,998.3
2022-10-01T08:59:27.498Z,998.4
2022-10-01T09:00:26.386Z,998.4
2022-10-01T09:01:26.448Z,998.4
2022-10-01T09:03:26.383Z,998.3
2022-10-01T09:04:26.429Z,998.3
2022-10-01T09:06:26.385Z,998.4
2022-10-01T09:07:26.431Z,998.3
2022-10-01T09:08:26.387Z,998.4
2022-10-01T09:09:26.380Z,998.4
2022-10-01T09:10:26.384Z,998.3
2022-10-01T09:13:26.394Z,998.4
2022-10-01T09:16:26.428Z,998.4
2022-10-01T09:17:26.392Z,998.4
2022-10-01T09:18:26.378Z,998.3
2022-10-01T09:20:26.383Z,998.4
2022-10-01T09:21:26.386Z,998.4
2022-10-01T09:23:26.389Z,998.5
2022-10-01T09:24:26.398Z,998.5
2022-10-01T09:25:26.382Z,998.5
2022-10-01T09:26:26.394Z,998.6
2022-10-01T09:34:26.391Z,998.5
2022-10-01T09:37:34.714Z,998.5
2022-10-01T09:38:34.721Z,998.5
2022-10-01T09:39:34.718Z,998.6
2022-10-01T11:05:34.765Z,999.3
2022-10-01T11:06:35.129Z,999.2
2022-10-01T11:07:34.736Z,999.4
2022-10-01T11:09:34.741Z,999.5
2022-10-01T11:10:34.737Z,999.4
2022-10-01T11:11:34.736Z,999.4
2022-10-01T11:12:34.738Z,999.4
2022-10-01T11:13:34.737Z,999.4
2022-10-01T11:14:34.738Z,999.5
2022-10-01T11:15:34.834Z,999.4
2022-10-01T11:16:35.070Z,999.4
2022-10-01T11:17:34.738Z,999.4
2022-10-01T11:18:34.771Z,999.4
2022-10-01T11:19:34.734Z,999.5
2022-10-01T12:08:34.746Z,999.6
2022-10-01T12:09:34.743Z,999.7
2022-10-01T12:10:34.675Z,999.7
2022-10-01T12:59:34.755Z,1000.2
2022-10-01T13:00:34.789Z,1000.2
2022-10-01T13:01:34.799Z,1000.2
2022-10-01T13:02:34.757Z,1000.3
2022-10-01T13:03:34.824Z,1000.3
2022-10-01T13:04:34.759Z,1000.2
2022-10-01T13:05:34.765Z,1000.2
2022-10-01T13:06:35.051Z,1000.3
2022-10-01T13:07:34.758Z,1000.3
2022-10-01T13:08:34.812Z,1000.3
2022-10-01T13:09:34.760Z,1000.4
2022-10-01T13:10:34.783Z,1000.3
2022-10-01T13:11:34.762Z,1000.3
2022-10-01T13:13:34.784Z,1000.4
2022-10-01T14:00:34.770Z,1001.3
2022-10-01T14:02:34.797Z,1001.3
2022-10-01T14:03:34.825Z,1001.3
2022-10-01T14:04:34.769Z,1001.3
2022-10-01T14:05:34.799Z,1001.4
2022-10-01T14:06:35.180Z,1001.4
2022-10-01T14:08:34.775Z,1001.4
2022-10-01T14:09:34.775Z,1001.4
2022-10-01T14:10:34.769Z,1001.5
2022-10-01T14:12:34.786Z,1001.5
2022-10-01T14:13:34.778Z,1001.4
2022-10-01T14:14:34.770Z,1001.5
2022-10-01T14:15:34.889Z,1001.6
2022-10-01T15:03:34.855Z,1002.1
2022-10-01T15:04:34.838Z,1002.1
2022-10-01T15:05:34.788Z,1002.2
2022-10-01T15:06:35.073Z,1002.2
2022-10-01T15:07:34.825Z,1002.2
2022-10-01T15:08:34.793Z,1002.2
2022-10-01T15:09:34.798Z,1002.2
2022-10-01T15:10:34.783Z,1002.2
2022-10-01T15:11:34.790Z,1002.2
2022-10-01T15:12:34.790Z,1002.3
2022-10-01T15:13:34.793Z,1002.3
2022-10-01T15:14:34.792Z,1002.3
2022-10-01T15:15:34.789Z,1002.3
2022-10-01T15:16:35.131Z,1002.2
2022-10-01T15:17:34.787Z,1002.4
2022-10-01T15:18:34.988Z,1002.3
2022-10-01T15:23:35.895Z,1002.4
2022-10-01T15:32:14.769Z,1002.6
2022-10-01T15:34:05.947Z,1002.6
2022-10-01T15:43:06.160Z,1002.7
2022-10-01T15:43:16.435Z,1002.7
2022-10-01T15:43:47.293Z,1002.7
2022-10-01T15:44:59.255Z,1002.5
2022-10-01T16:16:26.612Z,1003.2
2022-10-01T16:25:34.817Z,1003.4
2022-10-01T16:26:35.083Z,1003.4
2022-10-01T16:27:34.814Z,1003.5
2022-10-01T16:28:34.811Z,1003.5
2022-10-01T16:29:34.843Z,1003.5
2022-10-01T16:30:34.821Z,1003.4
2022-10-01T16:31:34.966Z,1003.5
2022-10-01T16:32:34.838Z,1003.5
2022-10-01T16:33:34.809Z,1003.5
2022-10-01T16:34:34.809Z,1003.5
2022-10-01T16:35:34.817Z,1003.5
2022-10-01T16:36:35.125Z,1003.5
2022-10-01T16:37:34.819Z,1003.5
2022-10-01T16:38:34.864Z,1003.6
2022-10-01T16:39:34.825Z,1003.5
2022-10-01T16:40:34.841Z,1003.6
2022-10-01T16:41:35.003Z,1003.6
2022-10-01T17:31:34.929Z,1004.5
2022-10-01T17:32:34.833Z,1004.6
2022-10-01T17:33:34.839Z,1004.6
2022-10-01T17:35:34.832Z,1004.6
2022-10-01T17:36:35.111Z,1004.6
2022-10-01T17:37:34.836Z,1004.6
2022-10-01T17:38:34.844Z,1004.7
2022-10-01T17:39:34.835Z,1004.7
2022-10-01T17:40:34.826Z,1004.7
2022-10-01T17:41:34.837Z,1004.7
2022-10-01T17:42:34.899Z,1004.8
2022-10-01T17:43:34.876Z,1004.8
2022-10-01T17:45:34.884Z,1004.8
2022-10-01T17:46:35.305Z,1004.8
2022-10-01T18:37:37.760Z,1005.8
2022-10-01T18:38:34.852Z,1005.8
2022-10-01T18:39:34.844Z,1005.8
2022-10-01T18:40:34.776Z,1005.9
2022-10-01T19:27:34.838Z,1006.5
2022-10-01T19:28:34.850Z,1006.6
2022-10-01T19:29:34.857Z,1006.6
2022-10-01T19:30:34.952Z,1006.6
2022-10-01T19:31:34.921Z,1006.6
2022-10-01T19:32:34.870Z,1006.6
2022-10-01T19:33:34.841Z,1006.6
2022-10-01T19:34:34.856Z,1006.7
2022-10-01T19:35:34.853Z,1006.7
2022-10-01T19:36:34.925Z,1006.7
2022-10-01T19:37:34.924Z,1006.7
2022-10-01T19:38:34.854Z,1006.7
2022-10-01T19:39:34.853Z,1006.7
2022-10-01T19:40:34.862Z,1006.8
2022-10-01T19:41:34.858Z,1006.8
2022-10-01T19:42:34.855Z,1006.8
2022-10-01T19:43:35.060Z,1006.8
2022-10-01T20:33:34.865Z,1007.2
2022-10-01T20:34:34.858Z,1007.2
2022-10-01T20:35:34.879Z,1007.3
2022-10-01T22:46:26.562Z,1008.5
2022-10-01T22:49:34.891Z,1008.5
2022-10-01T22:50:34.897Z,1008.5
2022-10-01T22:51:34.932Z,1008.5
2022-10-01T22:52:34.891Z,1008.6
2022-10-01T22:53:34.815Z,1008.6
2022-10-01T23:37:26.571Z,1008.6
2022-10-01T23:41:34.896Z,1008.7
2022-10-01T23:42:34.896Z,1008.7
2022-10-01T23:43:34.896Z,1008.7
2022-10-01T23:44:34.899Z,1008.7
2022-10-01T23:45:34.948Z,1008.8
2022-10-01T23:46:35.228Z,1008.8
2022-10-01T23:47:34.919Z,1008.8
2022-10-01T23:48:34.901Z,1008.8
2022-10-01T23:49:34.895Z,1008.8
2022-10-01T23:50:34.904Z,1008.8
2022-10-01T23:51:34.889Z,1008.8
2022-10-01T23:52:34.898Z,1008.8
2022-10-01T23:53:34.924Z,1008.8
2022-10-01T23:54:34.902Z,1008.7
2022-10-01T23:55:34.902Z,1008.8
2022-10-01T23:56:35.177Z,1008.8
2022-10-01T23:57:35.089Z,1008.8
2022-10-01T23:59:54.880Z,1008.8
